»·PEaware :: N860CR KPSP-KSAN

N860CR :: KPSP-KSAN

FLIGHT INFORMATION

Flight Status: Arrived
Operator: Privately registered:
United States
More flights under this callsign
Pilot: Nate M. (12976)
Aircraft: Cessna Citation Excel
(C56X)
More flights by this aircraft type
Origin: KPSP Palm Springs Intl
United States
Destination: KSAN San Diego Intl-Lindbergh
United States
More flights between these airports :: More routes between these airports
Route: +CATH1 PSP TRM V514 RYAHH
File this flight plan on PilotEdge
Remarks:
Altitude:
(Current/Filed)
14,000ft
Speed:
(Current/Filed)
370kts
Departed: 12-Oct-17 02:51 PM
Arrived: 12-Oct-17 03:22 PM
Distance/Time
Traveled:
74nm/0:30
Distance/Time
To Go:
Arrived

Flight Plot

Page will automatically refresh every two minutes.

Flight plan parsing failed; only flown route is shown


Map Options




Map Legend


Flown Route
Filed Route
Departure Airport
Arrival Airport
Navaid (VOR, NDB)
Fix

Horizontal Profiles

Position Reports

Time Latitude Longitude Heading Altitude Ground
Speed
12-Oct-17 14:28 33.822696 -116.497484 51 483ft 0kts
12-Oct-17 14:29 33.822696 -116.497484 51 483ft 0kts
12-Oct-17 14:30 33.822696 -116.497484 51 483ft 0kts
12-Oct-17 14:31 33.822696 -116.497484 51 483ft 0kts
12-Oct-17 14:32 33.822696 -116.497484 51 483ft 0kts
12-Oct-17 14:33 33.822696 -116.497484 51 483ft 0kts
12-Oct-17 14:34 33.822696 -116.497484 51 483ft 0kts
12-Oct-17 14:35 33.822696 -116.497484 51 483ft 0kts
12-Oct-17 14:36 33.822696 -116.497484 51 483ft 0kts
12-Oct-17 14:37 33.822696 -116.497484 51 483ft 0kts
12-Oct-17 14:38 33.822696 -116.497484 51 483ft 0kts
12-Oct-17 14:39 33.822696 -116.497484 51 483ft 0kts
12-Oct-17 14:40 33.822696 -116.497484 51 483ft 0kts
12-Oct-17 14:41 33.822696 -116.497484 51 483ft 0kts
12-Oct-17 14:42 33.822696 -116.497484 51 483ft 0kts
12-Oct-17 14:43 33.822696 -116.497484 51 483ft 0kts
12-Oct-17 14:44 33.822696 -116.497484 51 483ft 0kts
12-Oct-17 14:45 33.822696 -116.497484 51 483ft 0kts
12-Oct-17 14:46 33.822696 -116.497484 51 483ft 0kts
12-Oct-17 14:47 33.822696 -116.497484 51 483ft 0kts
12-Oct-17 14:48 33.822696 -116.497484 51 483ft 0kts
12-Oct-17 14:49 33.822696 -116.497484 51 483ft 0kts
12-Oct-17 14:50 33.822696 -116.497484 51 483ft 0kts
12-Oct-17 14:51 33.822696 -116.497483 51 483ft 0kts
12-Oct-17 14:52 33.819327 -116.496920 233 483ft 17kts
12-Oct-17 14:53 33.819222 -116.497093 234 483ft 0kts
12-Oct-17 14:54 33.819468 -116.498591 322 483ft 35kts
12-Oct-17 14:55 33.863763 -116.539641 321 2245ft 250kts
12-Oct-17 14:56 33.881965 -116.558001 311 2908ft 237kts
12-Oct-17 14:57 33.920129 -116.571095 48 4415ft 220kts
12-Oct-17 14:59 33.921681 -116.520247 114 5977ft 188kts
12-Oct-17 15:00 33.905204 -116.486052 124 7258ft 198kts
12-Oct-17 15:01 33.875487 -116.438828 128 8964ft 221kts
12-Oct-17 15:02 33.845618 -116.372915 116 10968ft 229kts
12-Oct-17 15:03 33.829089 -116.333783 116 12110ft 230kts
12-Oct-17 15:04 33.803593 -116.273897 117 13845ft 227kts
12-Oct-17 15:05 33.773709 -116.248402 184 14009ft 261kts
12-Oct-17 15:06 33.748357 -116.324512 260 13986ft 303kts
12-Oct-17 15:07 33.695471 -116.371424 190 13997ft 320kts
12-Oct-17 15:08 33.609499 -116.399597 197 14000ft 321kts
12-Oct-17 15:09 33.524012 -116.433429 198 14025ft 342kts
12-Oct-17 15:10 33.439381 -116.467205 198 13996ft 334kts
12-Oct-17 15:11 33.356934 -116.500060 198 13999ft 329kts
12-Oct-17 15:12 33.274488 -116.532850 198 14000ft 336kts
12-Oct-17 15:13 33.183426 -116.568990 198 14001ft 349kts
12-Oct-17 15:14 33.095161 -116.590360 185 13670ft 333kts
12-Oct-17 15:15 33.005319 -116.599933 185 11979ft 320kts
12-Oct-17 15:16 32.917433 -116.609042 185 10279ft 316kts
12-Oct-17 15:17 32.835015 -116.617558 185 9358ft 285kts
12-Oct-17 15:18 32.781313 -116.665579 251 8185ft 253kts
12-Oct-17 15:19 32.759421 -116.743985 251 6509ft 254kts
12-Oct-17 15:20 32.739857 -116.814291 251 5997ft 235kts
12-Oct-17 15:21 32.722284 -116.877470 251 5024ft 242kts
12-Oct-17 15:22 32.709001 -116.949396 265 4014ft 233kts
12-Oct-17 15:23 32.705710 -117.009368 271 2925ft 242kts
12-Oct-17 15:24 32.707113 -117.060674 274 2439ft 242kts
12-Oct-17 15:25 32.717107 -117.124281 287 1569ft 209kts
12-Oct-17 15:26 32.724359 -117.151151 285 978ft 184kts
12-Oct-17 15:27 32.733446 -117.188098 348 23ft 16kts
12-Oct-17 15:28 32.733473 -117.184202 104 23ft 18kts
12-Oct-17 15:29 32.732858 -117.179503 71 23ft 0kts
12-Oct-17 15:30 32.732858 -117.179503 71 23ft 0kts
12-Oct-17 15:31 32.732486 -117.178113 354 22ft 0kts
12-Oct-17 15:32 32.732486 -117.178113 354 22ft 0kts
12-Oct-17 15:33 32.732486 -117.178113 354 22ft 0kts
12-Oct-17 15:34 32.732486 -117.178113 354 22ft 0kts
12-Oct-17 15:35 32.732486 -117.178113 354 22ft 0kts
12-Oct-17 15:36 32.732486 -117.178113 354 22ft 0kts
12-Oct-17 15:37 32.732486 -117.178113 354 22ft 0kts
12-Oct-17 15:38 32.732486 -117.178113 354 22ft 0kts
12-Oct-17 15:39 32.732486 -117.178113 354 22ft 0kts
12-Oct-17 15:40 32.732486 -117.178113 354 22ft 0kts
12-Oct-17 15:41 32.732486 -117.178113 354 22ft 0kts

Navigation Log

Ident Type
Flight plan parsing failed, navigation log unavailable